sensor_id;sensor_type;location;lat;lon;timestamp;P1;durP1;ratioP1;P2;durP2;ratioP2
1400;SDS011;46518;48.842;8.926;2023-03-23T00:01:07;1.80;;;1.70;;
1400;SDS011;46518;48.842;8.926;2023-03-23T00:03:36;1.92;;;1.52;;
1400;SDS011;46518;48.842;8.926;2023-03-23T00:06:04;2.30;;;1.48;;
1400;SDS011;46518;48.842;8.926;2023-03-23T00:08:32;2.95;;;1.20;;
1400;SDS011;46518;48.842;8.926;2023-03-23T00:11:03;1.88;;;1.40;;
1400;SDS011;46518;48.842;8.926;2023-03-23T00:13:31;1.38;;;1.27;;
1400;SDS011;46518;48.842;8.926;2023-03-23T00:15:59;2.08;;;1.67;;
1400;SDS011;46518;48.842;8.926;2023-03-23T00:18:26;2.50;;;1.60;;
1400;SDS011;46518;48.842;8.926;2023-03-23T00:20:55;3.35;;;1.70;;
1400;SDS011;46518;48.842;8.926;2023-03-23T00:23:24;2.08;;;1.65;;
1400;SDS011;46518;48.842;8.926;2023-03-23T00:25:54;1.40;;;1.30;;
1400;SDS011;46518;48.842;8.926;2023-03-23T00:28:23;1.33;;;1.23;;
1400;SDS011;46518;48.842;8.926;2023-03-23T00:30:57;1.98;;;1.83;;
1400;SDS011;46518;48.842;8.926;2023-03-23T00:33:27;1.60;;;1.50;;
1400;SDS011;46518;48.842;8.926;2023-03-23T00:35:55;1.90;;;1.52;;
1400;SDS011;46518;48.842;8.926;2023-03-23T00:38:23;3.00;;;1.63;;
1400;SDS011;46518;48.842;8.926;2023-03-23T00:40:52;2.53;;;1.90;;
1400;SDS011;46518;48.842;8.926;2023-03-23T00:43:21;1.63;;;1.50;;
1400;SDS011;46518;48.842;8.926;2023-03-23T00:45:50;2.05;;;1.95;;
1400;SDS011;46518;48.842;8.926;2023-03-23T00:48:20;2.30;;;1.65;;
1400;SDS011;46518;48.842;8.926;2023-03-23T00:50:47;2.55;;;1.58;;
1400;SDS011;46518;48.842;8.926;2023-03-23T00:53:15;3.22;;;1.98;;
1400;SDS011;46518;48.842;8.926;2023-03-23T00:55:44;1.83;;;1.40;;
1400;SDS011;46518;48.842;8.926;2023-03-23T00:58:13;1.52;;;1.40;;
1400;SDS011;46518;48.842;8.926;2023-03-23T01:00:42;1.63;;;1.52;;
1400;SDS011;46518;48.842;8.926;2023-03-23T01:03:09;2.25;;;1.85;;
1400;SDS011;46518;48.842;8.926;2023-03-23T01:05:39;1.80;;;1.63;;
1400;SDS011;46518;48.842;8.926;2023-03-23T01:08:07;2.38;;;2.00;;
1400;SDS011;46518;48.842;8.926;2023-03-23T01:10:34;1.90;;;1.40;;
1400;SDS011;46518;48.842;8.926;2023-03-23T01:13:04;2.35;;;1.55;;
1400;SDS011;46518;48.842;8.926;2023-03-23T01:15:32;1.67;;;1.52;;
1400;SDS011;46518;48.842;8.926;2023-03-23T01:18:01;2.20;;;1.80;;
1400;SDS011;46518;48.842;8.926;2023-03-23T01:20:28;2.40;;;2.20;;
1400;SDS011;46518;48.842;8.926;2023-03-23T01:23:00;1.50;;;1.40;;
1400;SDS011;46518;48.842;8.926;2023-03-23T01:25:27;1.88;;;1.75;;
1400;SDS011;46518;48.842;8.926;2023-03-23T01:27:55;2.55;;;2.35;;
1400;SDS011;46518;48.842;8.926;2023-03-23T01:30:24;4.07;;;2.20;;
1400;SDS011;46518;48.842;8.926;2023-03-23T01:32:53;2.30;;;1.90;;
1400;SDS011;46518;48.842;8.926;2023-03-23T01:35:22;2.30;;;1.92;;
1400;SDS011;46518;48.842;8.926;2023-03-23T01:37:50;3.13;;;1.92;;
1400;SDS011;46518;48.842;8.926;2023-03-23T01:40:19;2.05;;;1.92;;
1400;SDS011;46518;48.842;8.926;2023-03-23T01:42:47;1.85;;;1.42;;
1400;SDS011;46518;48.842;8.926;2023-03-23T01:45:29;1.88;;;1.70;;
1400;SDS011;46518;48.842;8.926;2023-03-23T01:48:05;1.85;;;1.70;;
1400;SDS011;46518;48.842;8.926;2023-03-23T01:50:37;1.85;;;1.75;;
1400;SDS011;46518;48.842;8.926;2023-03-23T01:53:19;2.25;;;2.05;;
1400;SDS011;46518;48.842;8.926;2023-03-23T01:55:49;2.03;;;1.83;;
1400;SDS011;46518;48.842;8.926;2023-03-23T01:58:21;2.38;;;1.92;;
1400;SDS011;46518;48.842;8.926;2023-03-23T02:00:54;3.10;;;1.70;;
1400;SDS011;46518;48.842;8.926;2023-03-23T02:03:24;2.42;;;2.22;;
1400;SDS011;46518;48.842;8.926;2023-03-23T02:05:51;4.65;;;1.83;;
1400;SDS011;46518;48.842;8.926;2023-03-23T02:08:27;2.50;;;2.00;;
1400;SDS011;46518;48.842;8.926;2023-03-23T02:10:56;2.75;;;2.35;;
1400;SDS011;46518;48.842;8.926;2023-03-23T02:13:24;3.50;;;2.00;;
1400;SDS011;46518;48.842;8.926;2023-03-23T02:15:54;2.45;;;2.22;;
1400;SDS011;46518;48.842;8.926;2023-03-23T02:18:35;2.72;;;2.53;;
1400;SDS011;46518;48.842;8.926;2023-03-23T02:24:25;1.98;;;1.85;;
1400;SDS011;46518;48.842;8.926;2023-03-23T02:27:06;3.10;;;2.00;;
1400;SDS011;46518;48.842;8.926;2023-03-23T02:32:39;4.50;;;2.38;;
1400;SDS011;46518;48.842;8.926;2023-03-23T02:35:23;3.50;;;1.92;;
1400;SDS011;46518;48.842;8.926;2023-03-23T02:37:56;2.20;;;2.10;;
1400;SDS011;46518;48.842;8.926;2023-03-23T02:40:28;2.00;;;1.90;;
1400;SDS011;46518;48.842;8.926;2023-03-23T02:42:59;3.40;;;1.80;;
1400;SDS011;46518;48.842;8.926;2023-03-23T02:45:28;2.45;;;2.25;;
1400;SDS011;46518;48.842;8.926;2023-03-23T02:47:59;4.50;;;2.30;;
1400;SDS011;46518;48.842;8.926;2023-03-23T02:50:30;4.78;;;2.20;;
1400;SDS011;46518;48.842;8.926;2023-03-23T02:53:03;2.05;;;1.85;;
1400;SDS011;46518;48.842;8.926;2023-03-23T02:55:33;4.15;;;2.05;;
1400;SDS011;46518;48.842;8.926;2023-03-23T02:58:07;2.17;;;1.80;;
1400;SDS011;46518;48.842;8.926;2023-03-23T03:00:34;2.03;;;1.80;;
1400;SDS011;46518;48.842;8.926;2023-03-23T03:03:03;2.47;;;2.28;;
1400;SDS011;46518;48.842;8.926;2023-03-23T03:05:37;2.35;;;1.75;;
1400;SDS011;46518;48.842;8.926;2023-03-23T03:08:10;3.63;;;2.00;;
1400;SDS011;46518;48.842;8.926;2023-03-23T03:10:46;2.85;;;2.33;;
1400;SDS011;46518;48.842;8.926;2023-03-23T03:13:21;2.75;;;2.03;;
1400;SDS011;46518;48.842;8.926;2023-03-23T03:15:58;2.25;;;2.15;;
1400;SDS011;46518;48.842;8.926;2023-03-23T03:18:32;3.15;;;2.22;;
1400;SDS011;46518;48.842;8.926;2023-03-23T03:21:07;3.80;;;2.53;;
1400;SDS011;46518;48.842;8.926;2023-03-23T03:23:39;3.88;;;2.72;;
1400;SDS011;46518;48.842;8.926;2023-03-23T03:26:10;2.33;;;2.22;;
1400;SDS011;46518;48.842;8.926;2023-03-23T03:28:48;5.70;;;2.65;;
1400;SDS011;46518;48.842;8.926;2023-03-23T03:31:19;2.10;;;1.90;;
1400;SDS011;46518;48.842;8.926;2023-03-23T03:33:48;2.97;;;2.42;;
1400;SDS011;46518;48.842;8.926;2023-03-23T03:36:18;3.10;;;2.60;;
1400;SDS011;46518;48.842;8.926;2023-03-23T03:38:48;3.45;;;3.15;;
1400;SDS011;46518;48.842;8.926;2023-03-23T03:41:18;2.20;;;2.00;;
1400;SDS011;46518;48.842;8.926;2023-03-23T03:43:47;2.00;;;1.90;;
1400;SDS011;46518;48.842;8.926;2023-03-23T03:46:14;3.13;;;2.50;;
1400;SDS011;46518;48.842;8.926;2023-03-23T03:48:42;2.85;;;2.03;;
1400;SDS011;46518;48.842;8.926;2023-03-23T03:51:09;2.35;;;1.92;;
1400;SDS011;46518;48.842;8.926;2023-03-23T03:53:42;2.45;;;2.25;;
1400;SDS011;46518;48.842;8.926;2023-03-23T03:56:09;2.15;;;2.05;;
1400;SDS011;46518;48.842;8.926;2023-03-23T03:58:43;1.70;;;1.60;;
1400;SDS011;46518;48.842;8.926;2023-03-23T04:01:24;3.70;;;2.25;;
1400;SDS011;46518;48.842;8.926;2023-03-23T04:03:51;2.20;;;2.05;;
1400;SDS011;46518;48.842;8.926;2023-03-23T04:06:28;2.42;;;2.22;;
1400;SDS011;46518;48.842;8.926;2023-03-23T04:09:00;3.03;;;2.63;;
1400;SDS011;46518;48.842;8.926;2023-03-23T04:11:31;4.22;;;2.40;;
1400;SDS011;46518;48.842;8.926;2023-03-23T04:14:19;2.30;;;1.90;;
1400;SDS011;46518;48.842;8.926;2023-03-23T04:16:46;2.10;;;2.00;;
1400;SDS011;46518;48.842;8.926;2023-03-23T04:19:13;2.70;;;2.40;;
1400;SDS011;46518;48.842;8.926;2023-03-23T04:21:40;3.05;;;2.60;;
1400;SDS011;46518;48.842;8.926;2023-03-23T04:24:09;5.05;;;2.35;;
1400;SDS011;46518;48.842;8.926;2023-03-23T04:26:36;3.08;;;2.30;;
1400;SDS011;46518;48.842;8.926;2023-03-23T04:29:15;3.22;;;2.30;;
1400;SDS011;46518;48.842;8.926;2023-03-23T04:32:00;2.65;;;2.10;;
1400;SDS011;46518;48.842;8.926;2023-03-23T04:34:41;3.03;;;2.42;;
1400;SDS011;46518;48.842;8.926;2023-03-23T04:37:09;2.08;;;1.98;;
1400;SDS011;46518;48.842;8.926;2023-03-23T04:39:40;2.58;;;2.15;;
1400;SDS011;46518;48.842;8.926;2023-03-23T04:42:12;2.90;;;2.70;;
1400;SDS011;46518;48.842;8.926;2023-03-23T04:44:46;3.20;;;2.90;;
1400;SDS011;46518;48.842;8.926;2023-03-23T04:47:23;2.75;;;2.30;;
1400;SDS011;46518;48.842;8.926;2023-03-23T04:49:57;2.50;;;1.75;;
1400;SDS011;46518;48.842;8.926;2023-03-23T04:52:34;2.53;;;2.30;;
1400;SDS011;46518;48.842;8.926;2023-03-23T04:55:06;2.45;;;2.25;;
1400;SDS011;46518;48.842;8.926;2023-03-23T04:57:36;2.70;;;2.40;;
1400;SDS011;46518;48.842;8.926;2023-03-23T05:00:32;2.45;;;2.22;;
1400;SDS011;46518;48.842;8.926;2023-03-23T05:03:02;5.18;;;2.17;;
1400;SDS011;46518;48.842;8.926;2023-03-23T05:05:31;2.63;;;2.20;;
1400;SDS011;46518;48.842;8.926;2023-03-23T05:08:04;2.50;;;1.88;;
1400;SDS011;46518;48.842;8.926;2023-03-23T05:10:37;4.15;;;2.30;;
1400;SDS011;46518;48.842;8.926;2023-03-23T05:13:08;2.15;;;1.95;;
1400;SDS011;46518;48.842;8.926;2023-03-23T05:15:35;2.85;;;2.35;;
1400;SDS011;46518;48.842;8.926;2023-03-23T05:18:04;2.58;;;2.15;;
1400;SDS011;46518;48.842;8.926;2023-03-23T05:20:32;2.20;;;2.00;;
1400;SDS011;46518;48.842;8.926;2023-03-23T05:23:03;2.95;;;2.03;;
1400;SDS011;46518;48.842;8.926;2023-03-23T05:25:34;2.65;;;1.90;;
1400;SDS011;46518;48.842;8.926;2023-03-23T05:28:18;2.47;;;1.73;;
1400;SDS011;46518;48.842;8.926;2023-03-23T05:30:50;2.22;;;2.05;;
1400;SDS011;46518;48.842;8.926;2023-03-23T05:33:19;4.55;;;2.00;;
1400;SDS011;46518;48.842;8.926;2023-03-23T05:36:18;2.38;;;2.17;;
1400;SDS011;46518;48.842;8.926;2023-03-23T05:39:03;1.88;;;1.58;;
1400;SDS011;46518;48.842;8.926;2023-03-23T05:41:53;2.33;;;2.08;;
1400;SDS011;46518;48.842;8.926;2023-03-23T05:44:25;2.38;;;2.17;;
1400;SDS011;46518;48.842;8.926;2023-03-23T05:46:55;2.45;;;2.25;;
1400;SDS011;46518;48.842;8.926;2023-03-23T05:49:22;2.55;;;2.03;;
1400;SDS011;46518;48.842;8.926;2023-03-23T05:51:52;2.28;;;2.08;;
1400;SDS011;46518;48.842;8.926;2023-03-23T05:54:20;2.55;;;2.30;;
1400;SDS011;46518;48.842;8.926;2023-03-23T05:56:48;3.75;;;2.20;;
1400;SDS011;46518;48.842;8.926;2023-03-23T05:59:34;2.60;;;2.33;;
1400;SDS011;46518;48.842;8.926;2023-03-23T06:02:02;2.50;;;2.20;;
1400;SDS011;46518;48.842;8.926;2023-03-23T06:04:30;3.10;;;2.33;;
1400;SDS011;46518;48.842;8.926;2023-03-23T06:07:13;4.20;;;2.42;;
1400;SDS011;46518;48.842;8.926;2023-03-23T06:09:47;2.85;;;2.65;;
1400;SDS011;46518;48.842;8.926;2023-03-23T06:12:16;3.60;;;2.20;;
1400;SDS011;46518;48.842;8.926;2023-03-23T06:15:13;1.83;;;1.73;;
1400;SDS011;46518;48.842;8.926;2023-03-23T06:18:15;2.45;;;2.25;;
1400;SDS011;46518;48.842;8.926;2023-03-23T06:21:01;2.15;;;1.95;;
1400;SDS011;46518;48.842;8.926;2023-03-23T06:23:47;2.33;;;2.13;;
1400;SDS011;46518;48.842;8.926;2023-03-23T06:26:17;4.32;;;2.90;;
1400;SDS011;46518;48.842;8.926;2023-03-23T06:28:54;2.75;;;2.50;;
1400;SDS011;46518;48.842;8.926;2023-03-23T06:31:25;2.33;;;2.13;;
1400;SDS011;46518;48.842;8.926;2023-03-23T06:33:54;4.28;;;2.85;;
1400;SDS011;46518;48.842;8.926;2023-03-23T06:36:24;5.43;;;3.45;;
1400;SDS011;46518;48.842;8.926;2023-03-23T06:39:06;3.88;;;3.38;;
1400;SDS011;46518;48.842;8.926;2023-03-23T06:41:53;3.70;;;3.22;;
1400;SDS011;46518;48.842;8.926;2023-03-23T06:44:21;3.60;;;3.13;;
1400;SDS011;46518;48.842;8.926;2023-03-23T06:46:49;4.22;;;2.72;;
1400;SDS011;46518;48.842;8.926;2023-03-23T06:49:21;3.08;;;2.55;;
1400;SDS011;46518;48.842;8.926;2023-03-23T06:51:55;3.17;;;2.83;;
1400;SDS011;46518;48.842;8.926;2023-03-23T06:54:24;1.83;;;1.73;;
1400;SDS011;46518;48.842;8.926;2023-03-23T06:56:52;2.75;;;2.45;;
1400;SDS011;46518;48.842;8.926;2023-03-23T06:59:19;3.00;;;2.67;;
1400;SDS011;46518;48.842;8.926;2023-03-23T07:01:46;2.83;;;2.30;;
1400;SDS011;46518;48.842;8.926;2023-03-23T07:04:15;2.40;;;2.20;;
1400;SDS011;46518;48.842;8.926;2023-03-23T07:06:51;2.70;;;2.25;;
1400;SDS011;46518;48.842;8.926;2023-03-23T07:09:18;3.60;;;2.20;;
1400;SDS011;46518;48.842;8.926;2023-03-23T07:11:47;2.25;;;1.92;;
1400;SDS011;46518;48.842;8.926;2023-03-23T07:14:31;2.15;;;1.98;;
1400;SDS011;46518;48.842;8.926;2023-03-23T07:16:59;2.40;;;2.13;;
1400;SDS011;46518;48.842;8.926;2023-03-23T07:19:29;2.28;;;2.08;;
1400;SDS011;46518;48.842;8.926;2023-03-23T07:21:57;4.22;;;2.90;;
1400;SDS011;46518;48.842;8.926;2023-03-23T07:24:25;3.17;;;2.85;;
1400;SDS011;46518;48.842;8.926;2023-03-23T07:27:03;2.70;;;2.50;;
1400;SDS011;46518;48.842;8.926;2023-03-23T07:29:31;3.85;;;2.75;;
1400;SDS011;46518;48.842;8.926;2023-03-23T07:32:08;5.63;;;3.13;;
1400;SDS011;46518;48.842;8.926;2023-03-23T07:34:39;2.80;;;2.20;;
1400;SDS011;46518;48.842;8.926;2023-03-23T07:37:17;2.55;;;2.35;;
1400;SDS011;46518;48.842;8.926;2023-03-23T07:39:47;2.50;;;2.30;;
1400;SDS011;46518;48.842;8.926;2023-03-23T07:42:15;3.00;;;2.70;;
1400;SDS011;46518;48.842;8.926;2023-03-23T07:44:54;3.13;;;2.83;;
1400;SDS011;46518;48.842;8.926;2023-03-23T07:47:21;3.58;;;2.47;;
1400;SDS011;46518;48.842;8.926;2023-03-23T07:49:50;2.80;;;2.53;;
1400;SDS011;46518;48.842;8.926;2023-03-23T07:52:39;2.22;;;2.03;;
1400;SDS011;46518;48.842;8.926;2023-03-23T07:55:09;3.03;;;2.65;;
1400;SDS011;46518;48.842;8.926;2023-03-23T07:58:21;3.58;;;2.38;;
1400;SDS011;46518;48.842;8.926;2023-03-23T08:00:53;2.50;;;2.30;;
1400;SDS011;46518;48.842;8.926;2023-03-23T08:03:25;3.17;;;2.40;;
1400;SDS011;46518;48.842;8.926;2023-03-23T08:06:15;2.70;;;2.35;;
1400;SDS011;46518;48.842;8.926;2023-03-23T08:08:56;4.90;;;2.85;;
1400;SDS011;46518;48.842;8.926;2023-03-23T08:11:46;2.50;;;2.40;;
1400;SDS011;46518;48.842;8.926;2023-03-23T08:14:34;4.68;;;2.22;;
1400;SDS011;46518;48.842;8.926;2023-03-23T08:17:22;2.95;;;2.75;;
1400;SDS011;46518;48.842;8.926;2023-03-23T08:20:07;2.60;;;2.40;;
1400;SDS011;46518;48.842;8.926;2023-03-23T08:23:11;2.50;;;2.30;;
1400;SDS011;46518;48.842;8.926;2023-03-23T08:25:41;2.88;;;2.60;;
1400;SDS011;46518;48.842;8.926;2023-03-23T08:28:29;2.35;;;2.15;;
1400;SDS011;46518;48.842;8.926;2023-03-23T08:31:15;2.95;;;2.20;;
1400;SDS011;46518;48.842;8.926;2023-03-23T08:33:53;3.03;;;2.30;;
1400;SDS011;46518;48.842;8.926;2023-03-23T08:36:45;2.63;;;2.42;;
1400;SDS011;46518;48.842;8.926;2023-03-23T08:39:29;3.15;;;2.42;;
1400;SDS011;46518;48.842;8.926;2023-03-23T08:42:19;3.15;;;2.08;;
1400;SDS011;46518;48.842;8.926;2023-03-23T08:44:58;3.75;;;3.15;;
1400;SDS011;46518;48.842;8.926;2023-03-23T08:47:43;3.10;;;2.45;;
1400;SDS011;46518;48.842;8.926;2023-03-23T08:50:12;3.83;;;2.13;;
1400;SDS011;46518;48.842;8.926;2023-03-23T08:53:13;3.70;;;2.50;;
1400;SDS011;46518;48.842;8.926;2023-03-23T08:55:48;2.63;;;2.42;;
1400;SDS011;46518;48.842;8.926;2023-03-23T08:58:26;2.88;;;2.53;;
1400;SDS011;46518;48.842;8.926;2023-03-23T09:01:08;4.47;;;2.60;;
1400;SDS011;46518;48.842;8.926;2023-03-23T09:03:59;2.92;;;2.65;;
1400;SDS011;46518;48.842;8.926;2023-03-23T09:06:46;3.65;;;2.42;;
1400;SDS011;46518;48.842;8.926;2023-03-23T09:09:13;2.72;;;2.53;;
1400;SDS011;46518;48.842;8.926;2023-03-23T09:11:42;3.25;;;2.58;;
1400;SDS011;46518;48.842;8.926;2023-03-23T09:14:10;2.92;;;2.72;;
1400;SDS011;46518;48.842;8.926;2023-03-23T09:16:38;2.70;;;2.50;;
1400;SDS011;46518;48.842;8.926;2023-03-23T09:19:05;2.95;;;2.63;;
1400;SDS011;46518;48.842;8.926;2023-03-23T09:21:34;2.72;;;2.53;;
1400;SDS011;46518;48.842;8.926;2023-03-23T09:24:02;3.53;;;2.50;;
1400;SDS011;46518;48.842;8.926;2023-03-23T09:26:30;2.95;;;2.75;;
1400;SDS011;46518;48.842;8.926;2023-03-23T09:28:58;3.20;;;2.85;;
1400;SDS011;46518;48.842;8.926;2023-03-23T09:31:25;3.20;;;3.00;;
1400;SDS011;46518;48.842;8.926;2023-03-23T09:33:53;2.40;;;2.20;;
1400;SDS011;46518;48.842;8.926;2023-03-23T09:36:22;3.72;;;2.95;;
1400;SDS011;46518;48.842;8.926;2023-03-23T09:38:51;3.47;;;3.08;;
1400;SDS011;46518;48.842;8.926;2023-03-23T09:41:25;2.75;;;2.55;;
1400;SDS011;46518;48.842;8.926;2023-03-23T09:44:06;3.00;;;2.30;;
1400;SDS011;46518;48.842;8.926;2023-03-23T09:46:41;3.63;;;2.72;;
1400;SDS011;46518;48.842;8.926;2023-03-23T09:49:17;3.28;;;2.97;;
1400;SDS011;46518;48.842;8.926;2023-03-23T09:51:50;4.18;;;2.05;;
1400;SDS011;46518;48.842;8.926;2023-03-23T09:54:20;2.78;;;2.58;;
1400;SDS011;46518;48.842;8.926;2023-03-23T09:56:52;2.90;;;2.60;;
1400;SDS011;46518;48.842;8.926;2023-03-23T09:59:24;2.95;;;2.20;;
1400;SDS011;46518;48.842;8.926;2023-03-23T10:01:57;2.50;;;2.30;;
1400;SDS011;46518;48.842;8.926;2023-03-23T10:04:32;3.13;;;2.85;;
1400;SDS011;46518;48.842;8.926;2023-03-23T10:07:08;3.08;;;2.50;;
1400;SDS011;46518;48.842;8.926;2023-03-23T10:09:39;3.10;;;2.60;;
1400;SDS011;46518;48.842;8.926;2023-03-23T10:12:10;2.25;;;1.80;;
1400;SDS011;46518;48.842;8.926;2023-03-23T10:14:52;2.38;;;2.28;;
1400;SDS011;46518;48.842;8.926;2023-03-23T10:17:28;2.38;;;2.13;;
1400;SDS011;46518;48.842;8.926;2023-03-23T10:20:01;1.80;;;1.70;;
1400;SDS011;46518;48.842;8.926;2023-03-23T10:22:44;3.28;;;1.80;;
1400;SDS011;46518;48.842;8.926;2023-03-23T10:25:19;1.85;;;1.75;;
1400;SDS011;46518;48.842;8.926;2023-03-23T10:27:50;2.20;;;1.83;;
1400;SDS011;46518;48.842;8.926;2023-03-23T10:30:27;4.15;;;1.83;;
1400;SDS011;46518;48.842;8.926;2023-03-23T10:32:58;2.20;;;2.00;;
1400;SDS011;46518;48.842;8.926;2023-03-23T10:35:29;2.35;;;2.03;;
1400;SDS011;46518;48.842;8.926;2023-03-23T10:38:03;2.47;;;1.95;;
1400;SDS011;46518;48.842;8.926;2023-03-23T10:40:43;1.70;;;1.60;;
1400;SDS011;46518;48.842;8.926;2023-03-23T10:43:15;1.98;;;1.60;;
1400;SDS011;46518;48.842;8.926;2023-03-23T10:45:44;1.85;;;1.65;;
1400;SDS011;46518;48.842;8.926;2023-03-23T10:48:16;2.25;;;2.03;;
1400;SDS011;46518;48.842;8.926;2023-03-23T10:50:51;2.42;;;2.00;;
1400;SDS011;46518;48.842;8.926;2023-03-23T10:53:22;5.45;;;2.10;;
1400;SDS011;46518;48.842;8.926;2023-03-23T10:55:55;2.13;;;1.85;;
1400;SDS011;46518;48.842;8.926;2023-03-23T10:58:24;1.63;;;1.52;;
1400;SDS011;46518;48.842;8.926;2023-03-23T11:00:56;1.60;;;1.50;;
1400;SDS011;46518;48.842;8.926;2023-03-23T11:03:38;2.85;;;2.00;;
1400;SDS011;46518;48.842;8.926;2023-03-23T11:06:08;4.07;;;1.98;;
1400;SDS011;46518;48.842;8.926;2023-03-23T11:08:38;1.85;;;1.70;;
1400;SDS011;46518;48.842;8.926;2023-03-23T11:11:15;2.13;;;1.92;;
1400;SDS011;46518;48.842;8.926;2023-03-23T11:13:44;2.10;;;1.90;;
1400;SDS011;46518;48.842;8.926;2023-03-23T11:16:23;2.92;;;2.20;;
1400;SDS011;46518;48.842;8.926;2023-03-23T11:18:52;1.77;;;1.65;;
1400;SDS011;46518;48.842;8.926;2023-03-23T11:21:19;2.05;;;1.85;;
1400;SDS011;46518;48.842;8.926;2023-03-23T11:23:48;2.17;;;1.90;;
1400;SDS011;46518;48.842;8.926;2023-03-23T11:26:17;2.92;;;2.25;;
1400;SDS011;46518;48.842;8.926;2023-03-23T11:28:51;2.75;;;1.95;;
1400;SDS011;46518;48.842;8.926;2023-03-23T11:31:23;2.05;;;1.85;;
1400;SDS011;46518;48.842;8.926;2023-03-23T11:33:54;2.40;;;2.17;;
1400;SDS011;46518;48.842;8.926;2023-03-23T11:36:29;2.80;;;2.20;;
1400;SDS011;46518;48.842;8.926;2023-03-23T11:38:59;6.03;;;2.83;;
1400;SDS011;46518;48.842;8.926;2023-03-23T11:41:32;2.95;;;2.17;;
1400;SDS011;46518;48.842;8.926;2023-03-23T11:44:08;3.65;;;2.90;;
1400;SDS011;46518;48.842;8.926;2023-03-23T11:46:41;2.83;;;2.58;;
1400;SDS011;46518;48.842;8.926;2023-03-23T11:49:18;2.63;;;2.30;;
1400;SDS011;46518;48.842;8.926;2023-03-23T11:51:53;3.53;;;2.28;;
1400;SDS011;46518;48.842;8.926;2023-03-23T11:54:25;2.55;;;2.35;;
1400;SDS011;46518;48.842;8.926;2023-03-23T11:56:56;2.35;;;2.15;;
1400;SDS011;46518;48.842;8.926;2023-03-23T11:59:27;2.38;;;2.17;;
1400;SDS011;46518;48.842;8.926;2023-03-23T12:02:01;3.05;;;2.85;;
1400;SDS011;46518;48.842;8.926;2023-03-23T12:04:50;2.50;;;2.30;;
1400;SDS011;46518;48.842;8.926;2023-03-23T12:07:56;2.42;;;2.22;;
1400;SDS011;46518;48.842;8.926;2023-03-23T12:10:44;2.97;;;2.58;;
1400;SDS011;46518;48.842;8.926;2023-03-23T12:13:20;3.05;;;2.22;;
1400;SDS011;46518;48.842;8.926;2023-03-23T12:15:56;4.88;;;2.83;;
1400;SDS011;46518;48.842;8.926;2023-03-23T12:18:37;3.22;;;2.70;;
1400;SDS011;46518;48.842;8.926;2023-03-23T12:21:12;2.50;;;2.40;;
1400;SDS011;46518;48.842;8.926;2023-03-23T12:23:49;3.45;;;3.15;;
1400;SDS011;46518;48.842;8.926;2023-03-23T12:26:24;2.60;;;2.40;;
1400;SDS011;46518;48.842;8.926;2023-03-23T12:32:13;2.70;;;2.50;;
1400;SDS011;46518;48.842;8.926;2023-03-23T12:34:57;3.28;;;2.97;;
1400;SDS011;46518;48.842;8.926;2023-03-23T12:37:37;3.50;;;2.78;;
1400;SDS011;46518;48.842;8.926;2023-03-23T12:40:19;2.80;;;2.60;;
1400;SDS011;46518;48.842;8.926;2023-03-23T12:43:05;3.90;;;2.63;;
1400;SDS011;46518;48.842;8.926;2023-03-23T12:45:47;3.22;;;2.88;;
1400;SDS011;46518;48.842;8.926;2023-03-23T12:48:22;3.40;;;2.10;;
1400;SDS011;46518;48.842;8.926;2023-03-23T12:53:46;4.70;;;3.05;;
1400;SDS011;46518;48.842;8.926;2023-03-23T12:56:21;2.95;;;2.65;;
1400;SDS011;46518;48.842;8.926;2023-03-23T12:58:53;4.15;;;3.45;;
1400;SDS011;46518;48.842;8.926;2023-03-23T13:01:29;2.50;;;2.30;;
1400;SDS011;46518;48.842;8.926;2023-03-23T13:04:01;2.50;;;2.30;;
1400;SDS011;46518;48.842;8.926;2023-03-23T13:06:34;2.40;;;2.20;;
1400;SDS011;46518;48.842;8.926;2023-03-23T13:09:04;3.03;;;2.83;;
1400;SDS011;46518;48.842;8.926;2023-03-23T13:11:38;2.40;;;2.20;;
1400;SDS011;46518;48.842;8.926;2023-03-23T13:14:13;3.05;;;2.75;;
1400;SDS011;46518;48.842;8.926;2023-03-23T13:16:51;3.13;;;2.92;;
1400;SDS011;46518;48.842;8.926;2023-03-23T13:19:28;3.28;;;2.65;;
1400;SDS011;46518;48.842;8.926;2023-03-23T13:22:04;3.22;;;2.92;;
1400;SDS011;46518;48.842;8.926;2023-03-23T13:24:36;2.63;;;2.42;;
1400;SDS011;46518;48.842;8.926;2023-03-23T13:27:07;4.75;;;2.80;;
1400;SDS011;46518;48.842;8.926;2023-03-23T13:29:43;3.72;;;3.35;;
1400;SDS011;46518;48.842;8.926;2023-03-23T13:32:15;5.22;;;3.35;;
1400;SDS011;46518;48.842;8.926;2023-03-23T13:34:46;3.20;;;2.55;;
1400;SDS011;46518;48.842;8.926;2023-03-23T13:37:21;3.58;;;2.90;;
1400;SDS011;46518;48.842;8.926;2023-03-23T13:39:51;3.00;;;2.70;;
1400;SDS011;46518;48.842;8.926;2023-03-23T13:42:22;2.70;;;2.50;;
1400;SDS011;46518;48.842;8.926;2023-03-23T13:44:55;4.35;;;2.45;;
1400;SDS011;46518;48.842;8.926;2023-03-23T13:47:36;4.82;;;3.15;;
1400;SDS011;46518;48.842;8.926;2023-03-23T13:50:10;3.70;;;2.60;;
1400;SDS011;46518;48.842;8.926;2023-03-23T13:52:50;2.65;;;2.45;;
1400;SDS011;46518;48.842;8.926;2023-03-23T13:55:21;2.80;;;2.55;;
1400;SDS011;46518;48.842;8.926;2023-03-23T13:57:57;3.47;;;3.17;;
1400;SDS011;46518;48.842;8.926;2023-03-23T14:00:38;3.35;;;2.90;;
1400;SDS011;46518;48.842;8.926;2023-03-23T14:03:13;9.57;;;3.75;;
1400;SDS011;46518;48.842;8.926;2023-03-23T14:05:44;3.13;;;2.83;;
1400;SDS011;46518;48.842;8.926;2023-03-23T14:08:20;5.00;;;4.50;;
1400;SDS011;46518;48.842;8.926;2023-03-23T14:10:51;4.03;;;3.72;;
1400;SDS011;46518;48.842;8.926;2023-03-23T14:13:23;3.13;;;2.42;;
1400;SDS011;46518;48.842;8.926;2023-03-23T14:15:59;3.30;;;3.00;;
1400;SDS011;46518;48.842;8.926;2023-03-23T14:18:32;6.80;;;3.05;;
1400;SDS011;46518;48.842;8.926;2023-03-23T14:21:05;5.38;;;3.30;;
1400;SDS011;46518;48.842;8.926;2023-03-23T14:23:39;3.17;;;2.80;;
1400;SDS011;46518;48.842;8.926;2023-03-23T14:26:10;5.97;;;3.30;;
1400;SDS011;46518;48.842;8.926;2023-03-23T14:28:40;3.63;;;3.30;;
1400;SDS011;46518;48.842;8.926;2023-03-23T14:31:14;2.72;;;2.53;;
1400;SDS011;46518;48.842;8.926;2023-03-23T14:33:45;3.53;;;2.70;;
1400;SDS011;46518;48.842;8.926;2023-03-23T14:36:13;3.42;;;2.50;;
1400;SDS011;46518;48.842;8.926;2023-03-23T14:38:42;5.10;;;2.55;;
1400;SDS011;46518;48.842;8.926;2023-03-23T14:41:10;3.38;;;3.08;;
1400;SDS011;46518;48.842;8.926;2023-03-23T14:43:39;3.45;;;2.85;;
1400;SDS011;46518;48.842;8.926;2023-03-23T14:46:06;2.60;;;2.40;;
1400;SDS011;46518;48.842;8.926;2023-03-23T14:48:37;3.88;;;2.97;;
1400;SDS011;46518;48.842;8.926;2023-03-23T14:51:05;4.00;;;3.25;;
1400;SDS011;46518;48.842;8.926;2023-03-23T14:53:34;2.97;;;2.40;;
1400;SDS011;46518;48.842;8.926;2023-03-23T14:56:08;3.40;;;2.85;;
1400;SDS011;46518;48.842;8.926;2023-03-23T14:58:38;2.50;;;2.30;;
1400;SDS011;46518;48.842;8.926;2023-03-23T15:01:10;3.65;;;3.35;;
1400;SDS011;46518;48.842;8.926;2023-03-23T15:03:42;6.95;;;2.85;;
1400;SDS011;46518;48.842;8.926;2023-03-23T15:06:13;5.40;;;2.78;;
1400;SDS011;46518;48.842;8.926;2023-03-23T15:08:42;8.13;;;2.65;;
1400;SDS011;46518;48.842;8.926;2023-03-23T15:11:13;2.80;;;2.60;;
1400;SDS011;46518;48.842;8.926;2023-03-23T15:13:51;3.72;;;2.72;;
1400;SDS011;46518;48.842;8.926;2023-03-23T15:16:21;4.75;;;2.80;;
1400;SDS011;46518;48.842;8.926;2023-03-23T15:18:51;3.08;;;2.78;;
1400;SDS011;46518;48.842;8.926;2023-03-23T15:21:22;3.05;;;2.75;;
1400;SDS011;46518;48.842;8.926;2023-03-23T15:23:52;2.80;;;2.60;;
1400;SDS011;46518;48.842;8.926;2023-03-23T15:26:26;9.27;;;2.63;;
1400;SDS011;46518;48.842;8.926;2023-03-23T15:29:04;2.55;;;2.33;;
1400;SDS011;46518;48.842;8.926;2023-03-23T15:31:38;4.43;;;3.17;;
1400;SDS011;46518;48.842;8.926;2023-03-23T15:34:11;5.38;;;2.67;;
1400;SDS011;46518;48.842;8.926;2023-03-23T15:36:43;5.53;;;3.20;;
1400;SDS011;46518;48.842;8.926;2023-03-23T15:39:11;3.15;;;2.50;;
1400;SDS011;46518;48.842;8.926;2023-03-23T15:41:47;2.72;;;2.05;;
1400;SDS011;46518;48.842;8.926;2023-03-23T15:44:20;2.92;;;2.70;;
1400;SDS011;46518;48.842;8.926;2023-03-23T15:46:51;3.13;;;2.90;;
1400;SDS011;46518;48.842;8.926;2023-03-23T15:49:20;3.28;;;2.55;;
1400;SDS011;46518;48.842;8.926;2023-03-23T15:51:50;4.38;;;2.50;;